createdAt,value
2023-01-02T00:00:23.584Z,100984.28
2023-01-02T00:02:56.254Z,100960.72
2023-01-02T00:05:27.849Z,100949.25
2023-01-02T00:07:58.380Z,100948.41
2023-01-02T00:10:29.597Z,100960.23
2023-01-02T00:13:00.226Z,100953.88
2023-01-02T00:15:30.819Z,100954.83
2023-01-02T00:18:01.486Z,100956.22
2023-01-02T00:20:32.154Z,100962.75
2023-01-02T00:23:03.021Z,100966.08
2023-01-02T00:25:35.134Z,100958.11
2023-01-02T00:28:06.013Z,100956.30
2023-01-02T00:30:40.648Z,100949.95
2023-01-02T00:33:12.246Z,100954.97
2023-01-02T00:35:42.850Z,100957.14
2023-01-02T00:38:13.426Z,100966.25
2023-01-02T00:40:44.278Z,100957.53
2023-01-02T00:43:17.841Z,100958.30
2023-01-02T00:45:49.709Z,100954.25
2023-01-02T00:48:20.619Z,100954.69
2023-01-02T00:50:51.807Z,100948.97
2023-01-02T00:53:23.109Z,100951.11
2023-01-02T00:55:53.687Z,100965.78
2023-01-02T00:58:24.365Z,100965.98
2023-01-02T01:00:55.071Z,100973.25
2023-01-02T01:03:25.789Z,100970.59
2023-01-02T01:05:58.027Z,100968.47
2023-01-02T01:08:28.642Z,100975.59
2023-01-02T01:11:01.813Z,100981.78
2023-01-02T01:13:32.415Z,100986.44
2023-01-02T01:16:12.931Z,100978.12
2023-01-02T01:18:44.434Z,100986.63
2023-01-02T01:21:19.113Z,100990.82
2023-01-02T01:23:54.706Z,100997.70
2023-01-02T01:26:25.794Z,100995.04
2023-01-02T01:28:57.064Z,100995.91
2023-01-02T01:31:28.735Z,100995.02
2023-01-02T01:33:59.407Z,101001.03
2023-01-02T01:36:30.263Z,101007.77
2023-01-02T01:39:00.833Z,101003.15
2023-01-02T01:41:31.504Z,100976.09
2023-01-02T01:44:03.511Z,100987.02
2023-01-02T01:46:42.738Z,100992.40
2023-01-02T01:49:28.271Z,100990.10
2023-01-02T01:52:01.830Z,100986.84
2023-01-02T01:54:44.136Z,100993.05
2023-01-02T01:57:17.689Z,100978.31
2023-01-02T01:59:50.165Z,100985.98
2023-01-02T02:02:23.394Z,100968.17
2023-01-02T02:04:54.719Z,100959.83
2023-01-02T02:07:25.360Z,100957.74
2023-01-02T02:10:03.042Z,100963.19
2023-01-02T02:12:35.169Z,100962.06
2023-01-02T02:15:07.871Z,100966.45
2023-01-02T02:17:42.452Z,100959.78
2023-01-02T02:20:37.164Z,100952.22
2023-01-02T02:23:10.649Z,100948.58
2023-01-02T02:25:53.195Z,100946.85
2023-01-02T02:28:55.842Z,100949.94
2023-01-02T02:31:39.718Z,100937.82
2023-01-02T02:34:22.566Z,100934.78
2023-01-02T02:37:01.466Z,100937.64
2023-01-02T02:39:57.542Z,100923.61
2023-01-02T02:42:33.938Z,100920.06
2023-01-02T02:45:10.123Z,100911.34
2023-01-02T02:47:55.565Z,100904.61
2023-01-02T02:50:51.376Z,100909.05
2023-01-02T02:53:27.766Z,100910.70
2023-01-02T02:56:01.613Z,100898.38
2023-01-02T02:58:34.366Z,100892.06
2023-01-02T03:01:07.703Z,100897.06
2023-01-02T03:03:39.645Z,100892.36
2023-01-02T03:06:13.236Z,100890.31
2023-01-02T03:09:04.729Z,100888.36
2023-01-02T03:11:57.771Z,100892.56
2023-01-02T03:14:46.201Z,100885.02
2023-01-02T03:17:22.483Z,100872.78
2023-01-02T03:19:57.252Z,100875.95
2023-01-02T03:22:33.492Z,100879.59
2023-01-02T03:25:05.851Z,100883.30
2023-01-02T03:27:39.395Z,100866.44
2023-01-02T03:30:13.370Z,100869.20
2023-01-02T03:32:58.527Z,100867.27
2023-01-02T03:35:34.631Z,100864.29
2023-01-02T03:38:08.233Z,100877.33
2023-01-02T03:40:47.324Z,100860.67
2023-01-02T03:43:26.843Z,100851.16
2023-01-02T03:46:06.187Z,100845.70
2023-01-02T03:48:54.624Z,100840.98
2023-01-02T03:51:25.377Z,100842.82
2023-01-02T03:53:57.422Z,100841.58
2023-01-02T03:56:46.012Z,100844.78
2023-01-02T03:59:34.587Z,100841.82
2023-01-02T04:02:16.993Z,100840.59
2023-01-02T04:04:59.705Z,100837.38
2023-01-02T04:07:54.145Z,100832.02
2023-01-02T04:10:26.034Z,100842.23
2023-01-02T04:12:59.498Z,100828.89
2023-01-02T04:15:33.550Z,100828.68
2023-01-02T04:18:12.976Z,100831.16
2023-01-02T04:20:46.747Z,100828.81
2023-01-02T04:23:29.054Z,100815.20
2023-01-02T04:26:02.657Z,100813.23
2023-01-02T04:28:35.670Z,100814.02
2023-01-02T04:31:18.383Z,100801.78
2023-01-02T04:33:51.864Z,100805.56
2023-01-02T04:36:23.114Z,100798.59
2023-01-02T04:38:53.673Z,100803.67
2023-01-02T04:41:29.728Z,100806.70
2023-01-02T04:44:01.578Z,100799.69
2023-01-02T04:46:32.642Z,100801.84
2023-01-02T04:49:03.495Z,100796.34
2023-01-02T04:51:34.103Z,100797.08
2023-01-02T04:54:04.952Z,100776.13
2023-01-02T04:56:35.482Z,100778.61
2023-01-02T04:59:06.601Z,100776.13
2023-01-02T05:03:58.232Z,100769.14
2023-01-02T05:06:28.911Z,100761.62
2023-01-02T05:09:00.434Z,100761.34
2023-01-02T05:11:31.087Z,100759.66
2023-01-02T05:14:07.180Z,100768.29
2023-01-02T05:16:35.337Z,100764.54
2023-01-02T05:19:05.984Z,100764.81
2023-01-02T05:21:54.694Z,100762.66
2023-01-02T05:24:27.103Z,100753.41
2023-01-02T05:26:57.686Z,100750.66
2023-01-02T05:29:28.615Z,100736.55
2023-01-02T05:31:59.181Z,100731.17
2023-01-02T05:34:29.936Z,100730.52
2023-01-02T05:37:01.587Z,100725.19
2023-01-02T05:39:32.233Z,100712.36
2023-01-02T05:42:02.864Z,100709.18
2023-01-02T05:44:33.505Z,100705.41
2023-01-02T05:47:04.088Z,100707.39
2023-01-02T05:49:34.809Z,100707.69
2023-01-02T05:52:06.752Z,100702.56
2023-01-02T05:54:37.335Z,100706.50
2023-01-02T05:57:08.475Z,100711.30
2023-01-02T05:59:40.175Z,100717.12
2023-01-02T06:02:10.947Z,100709.55
2023-01-02T06:04:41.861Z,100719.16
2023-01-02T06:07:12.462Z,100719.09
2023-01-02T06:09:43.051Z,100720.33
2023-01-02T06:12:13.607Z,100720.47
2023-01-02T06:14:44.495Z,100716.69
2023-01-02T06:17:15.499Z,100711.19
2023-01-02T06:19:53.558Z,100707.84
2023-01-02T06:22:18.635Z,100711.39
2023-01-02T06:24:49.250Z,100703.27
2023-01-02T06:27:20.078Z,100704.97
2023-01-02T06:29:50.751Z,100709.54
2023-01-02T06:32:21.314Z,100694.31
2023-01-02T06:34:53.119Z,100690.39
2023-01-02T06:37:24.968Z,100688.75
2023-01-02T06:39:55.525Z,100677.91
2023-01-02T06:42:26.170Z,100674.58
2023-01-02T06:44:56.749Z,100672.22
2023-01-02T06:47:27.394Z,100670.63
2023-01-02T06:49:58.394Z,100680.39
2023-01-02T06:52:30.254Z,100671.18
2023-01-02T06:55:00.890Z,100656.79
2023-01-02T06:57:31.823Z,100663.83
2023-01-02T07:00:02.459Z,100668.37
2023-01-02T07:02:33.186Z,100662.77
2023-01-02T07:05:04.028Z,100684.34
2023-01-02T07:07:35.834Z,100659.72
2023-01-02T07:10:08.255Z,100691.70
2023-01-02T07:12:39.478Z,100675.75
2023-01-02T07:15:11.655Z,100682.66
2023-01-02T07:17:42.210Z,100669.66
2023-01-02T07:20:13.372Z,100663.24
2023-01-02T07:22:44.948Z,100669.19
2023-01-02T07:25:15.551Z,100670.87
2023-01-02T07:27:46.129Z,100667.64
2023-01-02T07:30:17.375Z,100664.03
2023-01-02T07:32:48.102Z,100655.79
2023-01-02T07:35:20.110Z,100668.61
2023-01-02T07:37:50.664Z,100665.62
2023-01-02T07:40:21.490Z,100659.98
2023-01-02T07:42:52.548Z,100662.08
2023-01-02T07:45:23.605Z,100663.00
2023-01-02T07:47:54.263Z,100655.53
2023-01-02T07:50:25.042Z,100664.10
2023-01-02T07:52:55.830Z,100655.67
2023-01-02T07:55:26.560Z,100661.75
2023-01-02T07:57:57.270Z,100657.77
2023-01-02T08:00:28.356Z,100655.25
2023-01-02T08:02:59.297Z,100649.05
2023-01-02T08:05:30.071Z,100649.03
2023-01-02T08:08:00.650Z,100651.00
2023-01-02T08:10:31.475Z,100649.14
2023-01-02T08:13:02.298Z,100652.52
2023-01-02T08:15:33.801Z,100641.70
2023-01-02T08:18:04.336Z,100646.15
2023-01-02T08:20:34.959Z,100645.36
2023-01-02T08:23:05.573Z,100641.27
2023-01-02T08:25:36.623Z,100652.38
2023-01-02T08:28:07.361Z,100641.41
2023-01-02T08:30:38.026Z,100643.77
2023-01-02T08:33:10.054Z,100658.45
2023-01-02T08:35:40.854Z,100650.39
2023-01-02T08:38:11.604Z,100656.73
2023-01-02T08:40:42.453Z,100658.23
2023-01-02T08:43:13.194Z,100653.80
2023-01-02T08:45:43.902Z,100642.91
2023-01-02T08:48:20.665Z,100646.05
2023-01-02T08:50:47.159Z,100635.46
2023-01-02T08:53:19.697Z,100639.42
2023-01-02T08:55:50.452Z,100630.02
2023-01-02T08:58:21.031Z,100632.38
2023-01-02T09:00:53.575Z,100661.77
2023-01-02T09:03:24.394Z,100656.63
2023-01-02T09:05:56.925Z,100670.69
2023-01-02T09:08:27.814Z,100658.92
2023-01-02T09:10:58.387Z,100649.44
2023-01-02T09:13:28.974Z,100654.11
2023-01-02T09:16:00.058Z,100650.14
2023-01-02T09:18:30.738Z,100651.19
2023-01-02T09:21:01.400Z,100638.02
2023-01-02T09:23:33.182Z,100638.02
2023-01-02T09:26:05.685Z,100632.67
2023-01-02T09:28:39.623Z,100641.33
2023-01-02T09:31:13.373Z,100637.36
2023-01-02T09:33:46.710Z,100650.87
2023-01-02T09:36:19.889Z,100655.00
2023-01-02T09:38:54.912Z,100652.09
2023-01-02T09:41:46.458Z,100655.30
2023-01-02T09:44:28.865Z,100650.80
2023-01-02T09:47:11.340Z,100640.65
2023-01-02T09:49:56.696Z,100644.89
2023-01-02T09:52:33.224Z,100645.59
2023-01-02T09:55:05.878Z,100644.65
2023-01-02T09:58:01.277Z,100634.42
2023-01-02T10:00:35.918Z,100636.75
2023-01-02T10:03:33.952Z,100631.91
2023-01-02T10:06:07.706Z,100635.65
2023-01-02T10:08:57.203Z,100637.27
2023-01-02T10:11:43.033Z,100627.03
2023-01-02T10:14:20.557Z,100616.67
2023-01-02T10:16:57.197Z,100620.36
2023-01-02T10:19:55.081Z,100612.02
2023-01-02T10:22:42.557Z,100609.15
2023-01-02T10:25:26.579Z,100603.30
2023-01-02T10:28:03.045Z,100610.09
2023-01-02T10:30:36.776Z,100609.83
2023-01-02T10:33:28.396Z,100596.77
2023-01-02T10:36:01.886Z,100603.41
2023-01-02T10:38:40.521Z,100608.20
2023-01-02T10:41:11.398Z,100604.03
2023-01-02T10:43:41.969Z,100600.86
2023-01-02T10:46:13.021Z,100598.03
2023-01-02T10:48:50.186Z,100599.06
2023-01-02T10:51:18.723Z,100599.64
2023-01-02T10:54:02.881Z,100599.53
2023-01-02T10:56:36.286Z,100593.22
2023-01-02T10:59:09.858Z,100606.92
2023-01-02T11:01:43.883Z,100596.75
2023-01-02T11:04:16.767Z,100598.38
2023-01-02T11:06:57.539Z,100600.63
2023-01-02T11:09:33.683Z,100598.38
2023-01-02T11:12:14.960Z,100598.92
2023-01-02T11:14:45.739Z,100590.37
2023-01-02T11:17:25.830Z,100594.64
2023-01-02T11:19:58.079Z,100577.72
2023-01-02T11:22:38.720Z,100570.80
2023-01-02T11:25:12.684Z,100584.33
2023-01-02T11:27:45.624Z,100571.06
2023-01-02T11:30:26.113Z,100587.60
2023-01-02T11:33:12.056Z,100564.16
2023-01-02T11:35:52.222Z,100569.45
2023-01-02T11:38:28.985Z,100559.00
2023-01-02T11:41:03.303Z,100557.48
2023-01-02T11:43:42.480Z,100551.96
2023-01-02T11:46:31.724Z,100565.25
2023-01-02T11:49:14.567Z,100563.06
2023-01-02T11:51:47.121Z,100559.80
2023-01-02T11:54:40.441Z,100552.98
2023-01-02T11:57:18.741Z,100555.09
2023-01-02T11:59:48.213Z,100555.01
2023-01-02T12:02:27.915Z,100553.64
2023-01-02T12:04:58.627Z,100549.58
2023-01-02T12:07:32.179Z,100546.98
2023-01-02T12:10:19.174Z,100554.31
2023-01-02T12:13:11.298Z,100547.46
2023-01-02T12:16:07.380Z,100554.88
2023-01-02T12:19:00.739Z,100560.75
2023-01-02T12:22:07.678Z,100575.87
2023-01-02T12:24:56.612Z,100568.96
2023-01-02T12:27:45.348Z,100561.45
2023-01-02T12:30:18.912Z,100555.40
2023-01-02T12:33:13.981Z,100541.52
2023-01-02T12:35:52.641Z,100538.61
2023-01-02T12:38:49.492Z,100528.77
2023-01-02T12:41:28.677Z,100540.76
2023-01-02T12:44:17.102Z,100525.14
2023-01-02T12:47:08.693Z,100524.47
2023-01-02T12:50:05.932Z,100522.66
2023-01-02T12:52:54.609Z,100528.91
2023-01-02T12:55:55.697Z,100525.27
2023-01-02T12:58:56.757Z,100524.41
2023-01-02T13:01:33.269Z,100539.12
2023-01-02T13:04:28.554Z,100531.25
2023-01-02T13:07:17.360Z,100527.38
2023-01-02T13:09:49.895Z,100533.54
2023-01-02T13:12:23.356Z,100523.55
2023-01-02T13:15:01.829Z,100546.81
2023-01-02T13:17:47.422Z,100536.33
2023-01-02T13:20:33.674Z,100523.64
2023-01-02T13:23:25.414Z,100522.98
2023-01-02T13:26:12.320Z,100527.21
2023-01-02T13:28:47.089Z,100522.20
2023-01-02T13:31:45.243Z,100517.18
2023-01-02T13:33:54.313Z,100514.02
2023-01-02T13:36:28.710Z,100515.66
2023-01-02T13:39:03.739Z,100516.34
2023-01-02T13:41:36.769Z,100523.55
2023-01-02T13:44:07.390Z,100509.88
2023-01-02T13:49:15.726Z,100507.97
2023-01-02T13:51:48.044Z,100511.22
2023-01-02T13:54:21.325Z,100528.75
2023-01-02T13:57:11.601Z,100529.33
2023-01-02T14:00:01.381Z,100531.05
2023-01-02T14:02:32.512Z,100535.75
2023-01-02T14:05:06.297Z,100541.14
2023-01-02T14:07:44.919Z,100529.61
2023-01-02T14:10:21.705Z,100528.08
2023-01-02T14:12:55.275Z,100532.97
2023-01-02T14:15:29.069Z,100510.64
2023-01-02T14:18:12.061Z,100521.84
2023-01-02T14:20:46.322Z,100509.50
2023-01-02T14:23:32.093Z,100509.88
2023-01-02T14:26:02.684Z,100518.92
2023-01-02T14:28:36.250Z,100518.74
2023-01-02T14:31:09.822Z,100525.08
2023-01-02T14:33:41.399Z,100526.14
2023-01-02T14:36:13.515Z,100524.08
2023-01-02T14:38:46.692Z,100524.08
2023-01-02T14:41:54.717Z,100522.20
2023-01-02T14:44:26.492Z,100518.44
2023-01-02T14:47:00.646Z,100513.81
2023-01-02T14:49:34.451Z,100508.55
2023-01-02T14:52:13.047Z,100510.43
2023-01-02T14:54:51.482Z,100517.18
2023-01-02T14:57:32.316Z,100516.41
2023-01-02T15:00:12.233Z,100527.00
2023-01-02T15:02:48.926Z,100526.01
2023-01-02T15:05:29.882Z,100516.58
2023-01-02T15:08:04.400Z,100522.38
2023-01-02T15:10:38.056Z,100530.21
2023-01-02T15:13:14.229Z,100538.81
2023-01-02T15:15:56.873Z,100531.13
2023-01-02T15:18:35.844Z,100554.61
2023-01-02T15:21:12.294Z,100559.28
2023-01-02T15:23:49.804Z,100581.78
2023-01-02T15:26:33.519Z,100601.52
2023-01-02T15:29:11.939Z,100596.75
2023-01-02T15:31:47.227Z,100594.38
2023-01-02T15:34:26.881Z,100594.45
2023-01-02T15:37:06.952Z,100597.34
2023-01-02T15:39:48.515Z,100581.34
2023-01-02T15:42:42.280Z,100577.25
2023-01-02T15:45:18.767Z,100579.75
2023-01-02T15:47:54.853Z,100571.06
2023-01-02T15:50:32.409Z,100564.12
2023-01-02T15:53:08.373Z,100568.33
2023-01-02T15:55:42.838Z,100565.46
2023-01-02T15:58:20.062Z,100573.59
2023-01-02T16:01:14.850Z,100573.20
2023-01-02T16:06:45.089Z,100581.53
2023-01-02T16:09:25.028Z,100586.23
2023-01-02T16:11:59.668Z,100583.14
2023-01-02T16:14:36.098Z,100583.13
2023-01-02T16:17:30.392Z,100582.13
2023-01-02T16:20:20.823Z,100585.02
2023-01-02T16:23:06.896Z,100588.39
2023-01-02T16:25:39.653Z,100584.94
2023-01-02T16:28:35.058Z,100570.05
2023-01-02T16:30:56.469Z,100570.73
2023-01-02T16:33:33.550Z,100567.17
2023-01-02T16:36:21.447Z,100586.65
2023-01-02T16:39:06.943Z,100580.48
2023-01-02T16:41:53.576Z,100572.73
2023-01-02T16:44:27.033Z,100569.40
2023-01-02T16:47:01.636Z,100579.33
2023-01-02T16:49:35.130Z,100559.79
2023-01-02T16:52:07.859Z,100560.34
2023-01-02T16:54:43.741Z,100550.73
2023-01-02T16:57:18.989Z,100550.78
2023-01-02T16:59:50.650Z,100555.60
2023-01-02T17:02:21.660Z,100558.87
2023-01-02T17:04:55.111Z,100550.22
2023-01-02T17:07:28.171Z,100560.89
2023-01-02T17:09:59.886Z,100558.42
2023-01-02T17:12:31.535Z,100559.75
2023-01-02T17:15:05.099Z,100559.02
2023-01-02T17:17:42.945Z,100559.65
2023-01-02T17:20:17.422Z,100561.41
2023-01-02T17:22:51.278Z,100562.31
2023-01-02T17:25:24.568Z,100559.70
2023-01-02T17:27:55.985Z,100562.56
2023-01-02T17:30:28.029Z,100550.44
2023-01-02T17:33:04.180Z,100556.84
2023-01-02T17:35:35.343Z,100562.48
2023-01-02T17:38:06.784Z,100567.64
2023-01-02T17:40:44.476Z,100572.43
2023-01-02T17:43:17.380Z,100564.14
2023-01-02T17:45:48.869Z,100560.30
2023-01-02T17:48:25.075Z,100565.22
2023-01-02T17:50:56.750Z,100560.47
2023-01-02T17:53:28.813Z,100566.42
2023-01-02T17:56:21.721Z,100562.22
2023-01-02T17:58:38.166Z,100559.33
2023-01-02T18:01:11.306Z,100562.34
2023-01-02T18:03:45.694Z,100568.14
2023-01-02T18:06:21.662Z,100563.89
2023-01-02T18:08:55.138Z,100564.23
2023-01-02T18:11:28.747Z,100566.14
2023-01-02T18:14:02.045Z,100568.66
2023-01-02T18:16:41.501Z,100583.59
2023-01-02T18:19:17.793Z,100573.11
2023-01-02T18:21:51.346Z,100574.38
2023-01-02T18:24:32.834Z,100570.93
2023-01-02T18:27:14.935Z,100575.60
2023-01-02T18:29:50.227Z,100564.11
2023-01-02T18:32:36.403Z,100562.73
2023-01-02T18:35:57.237Z,100560.30
2023-01-02T18:38:22.898Z,100560.22
2023-01-02T18:40:56.405Z,100561.11
2023-01-02T18:43:38.343Z,100562.56
2023-01-02T18:47:04.231Z,100570.80
2023-01-02T18:49:19.283Z,100573.20
2023-01-02T18:52:04.107Z,100572.69
2023-01-02T18:54:36.733Z,100575.27
2023-01-02T18:57:20.478Z,100587.12
2023-01-02T18:59:54.136Z,100587.83
2023-01-02T19:02:41.223Z,100581.01
2023-01-02T19:05:21.116Z,100583.14
2023-01-02T19:07:54.030Z,100586.60
2023-01-02T19:10:37.646Z,100607.66
2023-01-02T19:13:36.157Z,100591.30
2023-01-02T19:16:13.491Z,100591.46
2023-01-02T19:18:48.407Z,100596.07
2023-01-02T19:21:35.543Z,100598.91
2023-01-02T19:24:21.912Z,100595.09
2023-01-02T19:26:59.171Z,100601.47
2023-01-02T19:29:32.627Z,100602.48
2023-01-02T19:32:29.004Z,100606.07
2023-01-02T19:35:04.074Z,100595.56
2023-01-02T19:37:42.294Z,100594.38
2023-01-02T19:40:20.655Z,100598.83
2023-01-02T19:42:54.899Z,100597.48
2023-01-02T19:45:29.511Z,100596.98
2023-01-02T19:48:00.413Z,100605.82
2023-01-02T19:50:30.962Z,100600.00
2023-01-02T19:53:01.779Z,100595.70
2023-01-02T19:55:32.454Z,100603.98
2023-01-02T19:58:03.743Z,100602.87
2023-01-02T20:00:34.746Z,100610.41
2023-01-02T20:03:05.668Z,100617.19
2023-01-02T20:05:39.085Z,100617.55
2023-01-02T20:08:09.689Z,100621.38
2023-01-02T20:10:40.481Z,100626.31
2023-01-02T20:13:11.059Z,100632.65
2023-01-02T20:15:41.688Z,100636.11
2023-01-02T20:18:13.652Z,100637.77
2023-01-02T20:20:44.537Z,100630.89
2023-01-02T20:23:15.719Z,100641.66
2023-01-02T20:25:47.388Z,100634.65
2023-01-02T20:28:17.935Z,100626.87
2023-01-02T20:30:48.555Z,100632.43
2023-01-02T20:33:19.231Z,100638.11
2023-01-02T20:35:51.244Z,100638.20
2023-01-02T20:38:22.064Z,100641.19
2023-01-02T20:40:52.646Z,100640.42
2023-01-02T20:43:23.311Z,100635.72
2023-01-02T20:45:54.364Z,100648.14
2023-01-02T20:48:28.725Z,100655.84
2023-01-02T20:50:59.987Z,100651.61
2023-01-02T20:53:30.527Z,100647.67
2023-01-02T20:56:02.543Z,100646.78
2023-01-02T20:58:33.241Z,100660.50
2023-01-02T21:01:04.003Z,100645.50
2023-01-02T21:03:34.778Z,100637.81
2023-01-02T21:06:06.101Z,100648.99
2023-01-02T21:08:37.682Z,100646.89
2023-01-02T21:11:08.637Z,100658.06
2023-01-02T21:13:39.202Z,100632.98
2023-01-02T21:16:09.892Z,100662.59
2023-01-02T21:18:42.689Z,100660.50
2023-01-02T21:21:21.605Z,100662.12
2023-01-02T21:23:52.275Z,100675.19
2023-01-02T21:26:24.020Z,100680.38
2023-01-02T21:28:54.562Z,100674.42
2023-01-02T21:31:26.790Z,100681.67
2023-01-02T21:33:57.465Z,100689.06
2023-01-02T21:36:29.308Z,100691.25
2023-01-02T21:39:00.000Z,100692.97
2023-01-02T21:41:48.371Z,100709.11
2023-01-02T21:44:18.953Z,100697.41
2023-01-02T21:46:49.646Z,100719.95
2023-01-02T21:49:21.314Z,100709.56
2023-01-02T21:51:52.979Z,100723.42
2023-01-02T21:54:24.958Z,100716.25
2023-01-02T21:56:56.568Z,100712.35
2023-01-02T21:59:28.127Z,100719.18
2023-01-02T22:02:09.301Z,100735.16
2023-01-02T22:04:41.205Z,100709.20
2023-01-02T22:07:31.065Z,100716.67
2023-01-02T22:09:45.351Z,100722.92
2023-01-02T22:12:16.385Z,100732.19
2023-01-02T22:14:47.076Z,100741.87
2023-01-02T22:17:17.628Z,100736.48
2023-01-02T22:19:48.328Z,100751.72
2023-01-02T22:22:19.188Z,100753.91
2023-01-02T22:24:50.910Z,100749.14
2023-01-02T22:27:23.386Z,100752.37
2023-01-02T22:32:32.562Z,100756.32
2023-01-02T22:35:05.442Z,100767.20
2023-01-02T22:37:36.101Z,100752.08
2023-01-02T22:40:07.408Z,100764.75
2023-01-02T22:43:05.913Z,100763.20
2023-01-02T22:45:32.535Z,100770.11
2023-01-02T22:48:05.662Z,100772.55
2023-01-02T22:50:44.453Z,100773.66
2023-01-02T22:53:23.611Z,100774.62
2023-01-02T22:55:54.689Z,100776.81
2023-01-02T22:58:26.255Z,100779.06
2023-01-02T23:01:02.374Z,100794.24
2023-01-02T23:03:35.833Z,100808.01
2023-01-02T23:06:06.517Z,100794.56
2023-01-02T23:08:37.546Z,100802.87
2023-01-02T23:11:09.616Z,100800.72
2023-01-02T23:13:41.068Z,100802.70
2023-01-02T23:16:30.417Z,100795.73
2023-01-02T23:19:16.387Z,100808.62
2023-01-02T23:21:56.127Z,100815.20
2023-01-02T23:24:32.454Z,100815.48
2023-01-02T23:27:08.747Z,100838.58
2023-01-02T23:29:40.517Z,100853.77
2023-01-02T23:32:11.444Z,100848.61
2023-01-02T23:34:42.767Z,100857.02
2023-01-02T23:37:17.874Z,100860.06
2023-01-02T23:39:48.385Z,100860.82
2023-01-02T23:42:18.962Z,100856.53
2023-01-02T23:44:49.621Z,100852.20
2023-01-02T23:47:20.299Z,100857.64
2023-01-02T23:49:50.868Z,100863.17
2023-01-02T23:52:21.411Z,100870.04
2023-01-02T23:54:51.970Z,100881.69
2023-01-02T23:57:22.530Z,100868.14
2023-01-02T23:59:53.113Z,100870.02
